Terminal Aerodrome Forecast
Issued by NWS

Home | Current Version | Previous Version | Text Only | Print | Product List | Glossary On
Versions: 1 2 3 4 5 6 7 8 9 10 11 12
000
FTUS45 KRIW 302300
TAFCOD
TAF
KCOD 302326Z 3100/3124 14007KT P6SM FEW090 SCT250
     FM310200 20006KT P6SM SCT250
     FM311700 06007KT P6SM SCT250
      AMD LTD TO CLD VIS AND WIND=

USA.gov is the U.S. government's official web portal to all federal, state and local government web resources and services.